Terminal Aerodrome Forecast
Issued by NWS

Home | Current Version | Previous Version | Text Only | Print | Product List | Glossary On
Versions: 1 2 3 4 5 6 7 8 9 10 11 12 13 14 15 16 17 18 19 20 21 22 23 24 25 26
000
FTUS41 KBOX 310535
TAFACK
TAF
KACK 310535Z 3106/0106 21008KT P6SM SCT150
     FM310800 21009KT P6SM BKN045
     FM311600 21013KT P6SM BKN035
     FM010000 21013KT 1/2SM FG OVC003=

USA.gov is the U.S. government's official web portal to all federal, state and local government web resources and services.